Weather reports worldwide

Advertisment
Motril, Spain (8485): temperature & dewpoint: 07.12.2019 05:00:00 - 13.12.2019 05:00:00 (CET)Motril, Spain (8485): wind speed & gusts: 07.12.2019 05:00:00 - 13.12.2019 05:00:00 (CET)Motril, Spain (8485): wind direction: 07.12.2019 05:00:00 - 13.12.2019 05:00:00 (CET)Motril, Spain (8485): reduced air pressure: 07.12.2019 05:00:00 - 13.12.2019 05:00:00 (CET)Motril, Spain (8485): precipitation: 07.12.2019 05:00:00 - 13.12.2019 05:00:00 (CET)
Date & Time tt [°C] td [°C] ff [km/h] ff [kn] fx [km/h] fx [kn] dd ppp [hPa] rr [mm]
13.12.2019 05:00:00 15,8 12,3 16 9 25 14 W 1019,4 0,0
13.12.2019 04:00:00 15,5 11,4 10 6 19 10 W 1019,8 0,0
13.12.2019 03:00:00 15,6 11,2 9 5 24 13 W 1019,9 0,0
13.12.2019 02:00:00 15,7 10,4 11 6 21 12 W 1020,3 0,0
13.12.2019 01:00:00 15,8 10,2 10 6 29 15 W 1020,1 -
13.12.2019 00:00:00 15,9 9,3 14 7 30 16 WNW 1019,7 0,0
12.12.2019 23:00:00 15,8 8,5 16 9 45 24 W 1020,4 0,0
12.12.2019 22:00:00 16,2 8,0 18 10 46 25 WNW 1020,4 0,0
12.12.2019 21:00:00 15,7 7,4 14 8 32 17 NW 1020,5 0,0
12.12.2019 20:00:00 15,8 6,8 13 7 41 22 NW 1020,9 0,0
12.12.2019 19:00:00 15,7 6,4 17 9 54 29 WNW 1021,0 -
12.12.2019 18:00:00 16,0 5,9 26 14 48 26 W 1020,8 0,0
12.12.2019 17:00:00 16,1 5,9 16 9 56 30 NW 1020,9 0,0
12.12.2019 16:00:00 16,6 5,5 32 18 59 32 NW 1020,1 0,0
12.12.2019 15:00:00 17,3 5,3 26 14 57 31 NW 1021,0 0,0
12.12.2019 14:00:00 17,5 5,5 24 13 56 31 NW 1020,5 0,0
12.12.2019 13:00:00 16,7 5,0 27 15 59 32 NW 1021,6 -
12.12.2019 12:00:00 16,4 4,8 29 16 63 34 WNW 1022,7 0,0
12.12.2019 11:00:00 15,1 4,5 21 11 47 26 NW 1022,4 0,0
12.12.2019 10:00:00 14,8 4,1 19 10 48 26 NNW 1023,0 0,0
12.12.2019 09:00:00 14,3 3,9 14 8 36 19 NNW 1022,9 0,0
12.12.2019 08:00:00 13,6 4,5 13 7 40 22 NNW 1022,8 0,0
12.12.2019 07:00:00 13,5 5,5 21 12 45 24 N 1023,2 -
12.12.2019 06:00:00 13,7 5,6 21 12 41 22 N 1022,8 0,0
12.12.2019 05:00:00 14,4 5,5 18 10 37 20 N 1022,6 0,0
12.12.2019 04:00:00 14,9 5,9 13 7 34 18 N 1022,8 0,0
12.12.2019 03:00:00 14,6 6,4 17 9 35 19 N 1023,2 0,0
12.12.2019 02:00:00 14,6 6,4 20 11 46 25 N 1023,2 0,0
12.12.2019 01:00:00 15,1 6,4 25 14 45 24 N 1023,4 -
12.12.2019 00:00:00 15,5 6,5 23 12 47 25 N 1022,9 0,0
11.12.2019 23:00:00 15,9 6,4 19 10 44 24 NNW 1023,0 0,0
11.12.2019 22:00:00 16,6 6,1 15 8 49 26 NNW 1022,2 0,0
11.12.2019 21:00:00 17,2 6,7 9 5 31 17 WNW 1021,9 0,0
11.12.2019 20:00:00 17,4 7,1 12 7 55 30 WSW 1022,2 0,0
11.12.2019 19:00:00 19,3 8,7 34 18 64 34 NW 1020,8 -
11.12.2019 18:00:00 19,5 6,5 26 14 44 24 WNW 1021,0 0,0
11.12.2019 17:00:00 20,2 4,6 19 10 46 25 NW 1020,9 0,0
11.12.2019 16:00:00 21,2 2,9 18 10 49 26 NW 1020,6 0,0
11.12.2019 15:00:00 21,9 2,5 24 13 46 25 NW 1019,9 0,0
11.12.2019 14:00:00 22,8 5,6 14 8 36 19 NNW 1020,4 0,0
11.12.2019 13:00:00 19,7 10,6 12 7 33 18 W 1021,1 -
11.12.2019 12:00:00 19,1 10,4 11 6 20 11 W 1021,8 0,0
11.12.2019 11:00:00 18,2 12,6 6 3 10 5 SSE 1022,8 0,0
11.12.2019 10:00:00 15,7 11,2 4 2 8 4 N 1022,5 0,0
11.12.2019 09:00:00 13,6 9,7 2 1 13 7 E 1022,3 0,0
11.12.2019 08:00:00 13,7 10,9 5 3 21 11 WNW 1022,0 0,0
11.12.2019 07:00:00 13,9 7,1 6 3 13 7 W 1021,5 -
11.12.2019 06:00:00 12,0 8,1 2 1 14 8 S 1021,5 0,0
11.12.2019 05:00:00 10,7 7,4 2 1 10 5 NE 1021,9 0,0
11.12.2019 04:00:00 10,2 6,4 3 2 9 5 NW 1022,4 0,0
11.12.2019 03:00:00 11,7 9,3 5 3 10 5 WNW 1023,0 0,0
11.12.2019 02:00:00 10,1 7,3 0 0 6 3 SW 1023,1 0,0
11.12.2019 01:00:00 11,2 8,4 4 2 8 4 NNE 1023,6 -
11.12.2019 00:00:00 10,7 8,7 4 2 8 5 NNW 1024,3 0,0
10.12.2019 23:00:00 11,4 9,2 3 2 11 6 N 1024,3 0,0
10.12.2019 22:00:00 11,4 9,9 3 2 7 4 NW 1024,5 0,0
10.12.2019 21:00:00 12,2 11,6 0 0 5 3 NE 1024,6 0,0
10.12.2019 20:00:00 13,1 12,3 2 1 5 3 NNE 1024,7 0,0
10.12.2019 19:00:00 14,6 13,7 3 2 11 6 N 1024,6 -
10.12.2019 18:00:00 15,5 13,9 7 4 12 7 W 1024,7 0,0
10.12.2019 17:00:00 17,6 13,6 3 2 13 7 S 1024,2 0,0
10.12.2019 16:00:00 17,5 14,6 7 4 15 8 SSW 1024,0 0,0
10.12.2019 15:00:00 19,0 14,0 4 2 13 7 WSW 1024,5 0,0
10.12.2019 14:00:00 17,4 15,1 7 4 14 8 SW 1025,5 0,0
10.12.2019 13:00:00 17,4 14,1 9 5 17 9 SW 1026,1 -
10.12.2019 12:00:00 18,1 12,3 7 4 11 6 S 1026,6 0,0
10.12.2019 11:00:00 19,7 7,7 3 1 5 3 WSW 1027,4 0,0
10.12.2019 10:00:00 17,9 9,6 1 0 7 4 ENE 1027,2 0,0
10.12.2019 09:00:00 13,0 8,9 3 1 6 4 NNE 1026,9 0,0
10.12.2019 08:00:00 10,8 7,4 4 2 6 4 N 1026,6 0,0
10.12.2019 07:00:00 11,9 8,8 2 1 6 4 NE 1026,1 -
10.12.2019 06:00:00 13,6 12,3 2 1 9 5 WNW 1026,2 0,0
10.12.2019 05:00:00 13,8 11,3 1 0 15 8 ENE 1026,5 0,0
10.12.2019 04:00:00 15,1 10,5 3 2 11 6 S 1026,0 0,0
10.12.2019 03:00:00 15,1 8,5 1 0 12 7 SW 1026,3 0,0
10.12.2019 02:00:00 14,5 13,6 1 1 7 4 WSW 1026,4 0,0
10.12.2019 01:00:00 14,5 13,4 4 2 10 5 ESE 1026,8 -
10.12.2019 00:00:00 14,1 13,0 4 2 7 4 NE 1026,7 0,0
09.12.2019 23:00:00 13,8 12,6 2 1 8 4 ESE 1026,7 0,0
09.12.2019 22:00:00 14,3 13,2 1 0 6 3 W 1026,7 0,0
09.12.2019 21:00:00 14,3 13,6 2 1 6 3 NE 1026,7 0,0
09.12.2019 20:00:00 14,7 14,0 0 0 4 2 ESE 1026,6 0,0
09.12.2019 19:00:00 15,5 14,7 3 2 8 4 NNE 1026,1 -
09.12.2019 18:00:00 16,3 15,3 5 3 13 7 W 1026,1 0,0
09.12.2019 17:00:00 20,5 13,3 0 0 6 3 SE 1025,7 0,0
09.12.2019 16:00:00 20,0 15,0 4 2 6 4 S 1025,8 0,0
09.12.2019 15:00:00 20,6 16,4 4 2 11 6 ESE 1025,9 0,0
09.12.2019 14:00:00 17,5 15,5 8 4 18 10 SW 1026,3 0,0
09.12.2019 13:00:00 19,3 15,0 12 7 17 9 SE 1026,5 -
09.12.2019 12:00:00 18,7 13,8 7 4 16 9 SSE 1027,1 0,0
09.12.2019 11:00:00 19,5 13,7 7 4 11 6 ESE 1027,1 0,0
09.12.2019 10:00:00 20,0 11,4 4 2 11 6 NE 1026,5 0,0
09.12.2019 09:00:00 17,1 10,3 4 2 13 7 SSE 1025,4 0,0
09.12.2019 08:00:00 16,0 8,5 3 2 15 8 N 1025,1 0,0
09.12.2019 07:00:00 17,1 8,8 8 4 34 19 N 1024,4 -
09.12.2019 06:00:00 17,5 8,7 17 9 35 19 N 1023,7 0,0
09.12.2019 05:00:00 17,3 8,7 18 10 40 22 N 1023,6 0,0
09.12.2019 04:00:00 17,7 8,5 19 10 40 22 N 1023,6 0,0
09.12.2019 03:00:00 17,2 8,4 9 5 31 17 N 1023,6 0,0
09.12.2019 02:00:00 17,3 8,9 2 1 14 8 SW 1023,9 0,0
09.12.2019 01:00:00 16,0 10,3 3 2 11 6 WNW 1024,0 -
09.12.2019 00:00:00 15,4 11,2 3 2 16 9 NW 1024,5 0,0
08.12.2019 23:00:00 17,2 9,2 14 7 29 15 N 1023,9 0,0
08.12.2019 22:00:00 16,0 14,5 4 2 12 6 WSW 1024,1 0,0
08.12.2019 21:00:00 14,1 13,5 1 1 9 5 N 1024,2 0,0
08.12.2019 20:00:00 14,3 13,6 3 1 6 3 NNW 1024,5 0,0
08.12.2019 19:00:00 15,2 13,9 1 1 6 3 WSW 1024,1 -
08.12.2019 18:00:00 15,3 13,4 2 1 13 7 NW 1024,1 0,0
08.12.2019 17:00:00 16,2 13,4 7 4 16 9 W 1024,2 0,0
08.12.2019 16:00:00 16,3 13,9 8 4 21 12 SW 1024,2 0,0
08.12.2019 15:00:00 16,3 13,8 9 5 21 12 WSW 1024,1 0,0
08.12.2019 14:00:00 16,5 13,8 9 5 23 12 WSW 1024,7 0,0
08.12.2019 13:00:00 15,7 13,2 12 6 26 14 WSW 1025,4 -
08.12.2019 12:00:00 15,6 12,7 11 6 24 13 WSW 1026,2 0,0
08.12.2019 11:00:00 15,4 12,5 10 6 23 12 W 1026,3 0,0
08.12.2019 10:00:00 14,8 8,9 9 5 23 13 W 1026,1 0,0
08.12.2019 09:00:00 13,5 8,4 9 5 20 11 WNW 1025,4 0,0
08.12.2019 08:00:00 12,3 8,0 6 3 19 10 WNW 1025,3 0,0
08.12.2019 07:00:00 13,1 8,5 12 6 23 13 WNW 1024,8 -
08.12.2019 06:00:00 13,0 8,9 10 6 18 10 WNW 1024,4 0,0
08.12.2019 05:00:00 12,4 8,5 13 7 22 12 NW 1024,5 0,0
08.12.2019 04:00:00 12,8 9,9 10 5 20 11 WNW 1024,8 0,0
08.12.2019 03:00:00 12,0 11,2 4 2 8 4 WNW 1025,3 0,0
08.12.2019 02:00:00 12,0 11,7 1 0 6 3 SW 1025,5 0,0
08.12.2019 01:00:00 12,7 12,4 5 3 7 4 NNE 1025,6 -
08.12.2019 00:00:00 12,0 11,3 1 1 7 4 NNW 1025,9 0,0
07.12.2019 23:00:00 13,2 12,2 0 0 4 2 ENE 1025,8 0,0
07.12.2019 22:00:00 13,9 12,7 3 2 8 4 N 1025,4 0,0
07.12.2019 21:00:00 15,2 13,6 6 3 11 6 W 1024,7 0,0
07.12.2019 20:00:00 15,5 13,7 6 3 12 6 W 1024,3 0,0
07.12.2019 19:00:00 15,7 13,8 4 2 12 6 W 1023,8 -
07.12.2019 18:00:00 15,6 13,3 6 3 11 6 WSW 1023,3 0,0
07.12.2019 17:00:00 16,4 13,2 6 3 16 9 SW 1022,8 0,0
07.12.2019 16:00:00 16,4 14,0 11 6 25 14 SW 1022,3 0,0
07.12.2019 15:00:00 16,1 13,6 13 7 25 13 WSW 1022,0 0,0
07.12.2019 14:00:00 16,7 13,5 13 7 26 14 WSW 1022,2 0,0
07.12.2019 13:00:00 17,2 14,6 10 5 17 9 SW 1023,0 -
07.12.2019 12:00:00 16,9 14,7 11 6 14 8 S 1023,4 0,0
07.12.2019 11:00:00 19,5 10,5 6 3 8 5 SE 1023,5 0,0
07.12.2019 10:00:00 19,5 11,0 2 1 7 4 E 1022,8 0,0
07.12.2019 09:00:00 15,2 8,4 5 3 9 5 WNW 1022,1 0,0
07.12.2019 08:00:00 15,7 8,0 2 1 13 7 WSW 1021,3 0,0
07.12.2019 07:00:00 15,9 8,1 7 4 16 9 N 1020,8 -
07.12.2019 06:00:00 16,1 8,1 3 2 18 10 NE 1020,4 0,0
07.12.2019 05:00:00 16,4 8,7 10 5 20 11 N 1020,2 0,0

tt = temperature
td = dewpoint
ff = wind speed
fx = gusts
dd = wind direction
ppp = reduced air pressure
rr = precipitation

Next stations